Aiwamaru — JD2602 — position and weather

sailwx.info

Track history (hours):
 
Tides and Currents Weather Stations Pressure Air Temp Water Temp Dewpoint Dewpoint Depression Visibility Wind Speed Wind Dir Waves Ship Positions

Aiwamaru

Last reported at 2016-Sep-17 05:33 UTC. Time now 2016-Sep-27 10:28 UTC.
Position N 34°36' E 135°03'.
Warning: this ship's position is 10 days out of date.

Length 64 m; draft 4.8 m.

Type: Tanker. MMSI: 431000508.

Date/timePositionNaut miles runAvg speedWind from/ knotsBaromVisibWave heightAir tempDewpointWater temp
2016-Sep-17 05:33N 34°36' E 135°03'9 8.7
2016-Sep-17 04:34N 34°28' E 135°03'15 3.7
2016-Sep-17 00:24N 34°13' E 135°09'10 1.4
2016-Sep-16 17:33N 34°12' E 134°57'  
2016-Sep-14 07:11N 34°37' E 135°01'812.1
2016-Sep-14 06:33N 34°38' E 135°10'8 2.7
2016-Sep-14 03:33N 34°35' E 135°19'2 0.4
2016-Sep-13 22:28N 34°33' E 135°17'0 0.0
2016-Sep-13 20:28N 34°33' E 135°17'0 0.0
2016-Sep-13 18:28N 34°33' E 135°17'8 8.3
2016-Sep-13 17:33N 34°34' E 135°08'  
Track history (hours):
 
Tides and Currents Weather Stations Pressure Air Temp Water Temp Dewpoint Dewpoint Depression Visibility Wind Speed Wind Dir Waves Ship Positions

Aiwamaru

Last reported at 2016-Sep-17 05:33 UTC. Time now 2016-Sep-27 10:28 UTC.
Position N 34°36' E 135°03'.
Warning: this ship's position is 10 days out of date.

Length 64 m; draft 4.8 m.

Type: Tanker. MMSI: 431000508.

Date/timePositionNaut miles runAvg speedWind from/ knotsBaromVisibWave heightAir tempDewpointWater temp
2016-Sep-17 05:33N 34°36' E 135°03'9 8.7
2016-Sep-17 04:34N 34°28' E 135°03'15 3.7
2016-Sep-17 00:24N 34°13' E 135°09'10 1.4
2016-Sep-16 17:33N 34°12' E 134°57'  
2016-Sep-14 07:11N 34°37' E 135°01'812.1
2016-Sep-14 06:33N 34°38' E 135°10'8 2.7
2016-Sep-14 03:33N 34°35' E 135°19'2 0.4
2016-Sep-13 22:28N 34°33' E 135°17'0 0.0
2016-Sep-13 20:28N 34°33' E 135°17'0 0.0
2016-Sep-13 18:28N 34°33' E 135°17'8 8.3
2016-Sep-13 17:33N 34°34' E 135°08'  

Dump ship's entire track history